KFSI

Henry Post AAF (Fort Sill) Airport

Fort Sill, Oklahoma, USA
METAR KFSI 150256Z AUTO 08007KT 10SM M 26/23 A2989 RMK AO2 SLP113 60002 T02570230 53020 CHINO RWY17 $
Observed Flight Rules
Aug-15 @ 02:56 UTC (39 minutes ago)
Wind Visibility
80° at 7 knots 10 miles
Temperatures Readings
Current 26°C / 79°F
Dewpoint 23°C / 73°F
Humidity 84%
Altimeter 29.89" Hg
Pressure 1011.3 hPa
Elevation 362
METAR KFSI 150256Z AUTO 08007KT 10SM M 26/23 A2989 RMK AO2 SLP113 60002 T02570230 53020 CHINO RWY17 $
Observed Flight Rules
Aug-15 @ 02:56 UTC
(39 minutes ago)
Wind Visibility
80° at 7 knots 10 miles
Temperature Dewpoint
26°C / 79°F 23°C / 73°F
Humidity Altimeter Pressure
84% 29.89" Hg 1011.3 hPa